KBJI/BJI METAR and TAF weather

Enter ICAO airport designator
Station Type Date Time Source
KBJI METAR 2018/12/12 16:15 UTC NOAA

KBJI 121615Z AUTO 14004KT 1 1/2SM BR OVC002 M07/M08 A2972 RMK AO2 T10701077


Station Type Date Time Source
KBJI Decoded METAR 2018/12/12 16:15 UTC NOAA

Bemidji, MN, United States (KBJI) 47-30N 094-56W 420M
Dec 12, 2018 - 11:15 AM EST / 2018.12.12 1615 UTC
Wind: from the SE (140 degrees) at 5 MPH (4 KT):0
Visibility: 1 1/2 mile(s):0
Sky conditions: overcast
Weather: mist
Temperature: 19.4 F (-7.0 C)
Windchill: 12 F (-11 C):1
Dew Point: 18.1 F (-7.7 C)
Relative Humidity: 94%
Pressure (altimeter): 29.72 in. Hg (1006 hPa)
ob: KBJI 121615Z AUTO 14004KT 1 1/2SM BR OVC002 M07/M08 A2972 RMK AO2 T10701077
cycle: 16

Station Type Date Time Source
KBJI TAF 2018/12/12 16:15 UTC NOAA

TAF
AMD KBJI 121613Z 1216/1312 VRB03KT 2SM BR OVC002
FM121800 15007KT P6SM BKN010
FM130900 20008KT P6SM -SN OVC010


Example: see airport list